RESCUE1 BGSF-BGSF
Flight info
| Callsign | RESCUE1 |
|---|---|
| Flight time | 0h 2m |
| Altitude | 3500 |
| Route | VFR |
| Aircraft | EC25/M-VGD/C |
Departure
| Time | 2026-04-24 09:53 |
|---|---|
| Airport | Kangerlussuaq International Airport (BGSF) |
Arrival
| Time | 2026-04-24 09:56 |
|---|---|
| Airport | Kangerlussuaq International Airport (BGSF) |
| Time | Latitude | Longitude | Altitude | Speed | Heading |
|---|---|---|---|---|---|
| 2026-04-24 09:45 | 67.01226 | -50.69558 | 154 ft | 0 kts | 163° |
| 2026-04-24 09:48 | 67.01225 | -50.69558 | 154 ft | 1 kts | 169° |
| 2026-04-24 09:48 | 67.01213 | -50.69629 | 154 ft | 6 kts | 248° |
| 2026-04-24 09:49 | 67.01199 | -50.69706 | 154 ft | 8 kts | 248° |
| 2026-04-24 09:49 | 67.01182 | -50.69852 | 155 ft | 10 kts | 251° |
| 2026-04-24 09:49 | 67.01158 | -50.70026 | 155 ft | 11 kts | 245° |
| 2026-04-24 09:49 | 67.01130 | -50.70220 | 156 ft | 9 kts | 282° |
| 2026-04-24 09:50 | 67.01157 | -50.70252 | 156 ft | 4 kts | 344° |
| 2026-04-24 09:50 | 67.01184 | -50.70279 | 156 ft | 4 kts | 334° |
| 2026-04-24 09:50 | 67.01206 | -50.70298 | 156 ft | 0 kts | 355° |
| 2026-04-24 09:51 | 67.01218 | -50.70298 | 157 ft | 4 kts | 353° |
| 2026-04-24 09:52 | 67.01260 | -50.70323 | 158 ft | 9 kts | 341° |
| 2026-04-24 09:52 | 67.01336 | -50.70376 | 160 ft | 14 kts | 341° |
| 2026-04-24 09:52 | 67.01409 | -50.70331 | 190 ft | 16 kts | 52° |
| 2026-04-24 09:52 | 67.01489 | -50.69878 | 334 ft | 36 kts | 47° |
| 2026-04-24 09:53 | 67.01662 | -50.69178 | 490 ft | 59 kts | 50° |
| 2026-04-24 09:53 | 67.01867 | -50.68121 | 618 ft | 75 kts | 57° |
| 2026-04-24 09:53 | 67.01739 | -50.66797 | 680 ft | 88 kts | 130° |
| 2026-04-24 09:53 | 67.01154 | -50.66843 | 772 ft | 94 kts | 207° |
| 2026-04-24 09:54 | 67.00612 | -50.67927 | 831 ft | 101 kts | 210° |
| 2026-04-24 09:54 | 67.00151 | -50.69340 | 805 ft | 109 kts | 234° |
| 2026-04-24 09:54 | 66.99884 | -50.71184 | 783 ft | 111 kts | 246° |
| 2026-04-24 09:54 | 66.99628 | -50.73031 | 753 ft | 110 kts | 244° |
| 2026-04-24 09:55 | 66.99509 | -50.74914 | 637 ft | 105 kts | 290° |
| 2026-04-24 09:55 | 67.00027 | -50.75843 | 416 ft | 95 kts | 20° |
| 2026-04-24 09:55 | 67.00472 | -50.74688 | 167 ft | 95 kts | 58° |
| 2026-04-24 09:55 | 67.00768 | -50.73324 | 165 ft | 75 kts | 56° |
| 2026-04-24 09:56 | 67.00970 | -50.72362 | 180 ft | 46 kts | 60° |
| 2026-04-24 09:56 | 67.01065 | -50.71942 | 156 ft | 4 kts | 60° |
| 2026-04-24 09:56 | 67.01063 | -50.71966 | 154 ft | 0 kts | 58° |
| 2026-04-24 09:56 | 67.01066 | -50.71954 | 159 ft | 6 kts | 49° |
| 2026-04-24 09:57 | 67.01123 | -50.71666 | 187 ft | 33 kts | 65° |
| 2026-04-24 09:57 | 67.01285 | -50.70896 | 212 ft | 62 kts | 53° |
| 2026-04-24 09:57 | 67.01515 | -50.69812 | 259 ft | 76 kts | 54° |
| 2026-04-24 09:57 | 67.01781 | -50.68596 | 371 ft | 77 kts | 53° |
| 2026-04-24 09:58 | 67.01800 | -50.67302 | 484 ft | 77 kts | 112° |
| 2026-04-24 09:58 | 67.01326 | -50.66795 | 618 ft | 76 kts | 166° |
| 2026-04-24 09:58 | 67.00833 | -50.67184 | 732 ft | 75 kts | 198° |
| 2026-04-24 09:58 | 67.00404 | -50.68062 | 692 ft | 86 kts | 231° |
| 2026-04-24 09:59 | 67.00195 | -50.69533 | 663 ft | 90 kts | 247° |
| 2026-04-24 09:59 | 67.00007 | -50.71068 | 655 ft | 91 kts | 243° |
| 2026-04-24 09:59 | 66.99770 | -50.72577 | 651 ft | 92 kts | 238° |
| 2026-04-24 09:59 | 66.99634 | -50.74168 | 480 ft | 98 kts | 282° |
| 2026-04-24 10:00 | 67.00133 | -50.75167 | 262 ft | 92 kts | 359° |
| 2026-04-24 10:00 | 67.00525 | -50.74352 | 203 ft | 64 kts | 52° |
| 2026-04-24 10:00 | 67.00704 | -50.73610 | 136 ft | 28 kts | 44° |
| 2026-04-24 10:00 | 67.00742 | -50.73479 | 137 ft | 4 kts | 51° |
| 2026-04-24 10:01 | 67.00751 | -50.73409 | 120 ft | 3 kts | 55° |
| 2026-04-24 10:01 | 67.00752 | -50.73405 | 120 ft | 0 kts | 52° |
| 2026-04-24 10:01 | 67.00754 | -50.73391 | 134 ft | 9 kts | 37° |
| 2026-04-24 10:01 | 67.00876 | -50.72808 | 169 ft | 62 kts | 56° |
| 2026-04-24 10:02 | 67.01133 | -50.71600 | 197 ft | 88 kts | 54° |
| 2026-04-24 10:02 | 67.01443 | -50.70098 | 210 ft | 101 kts | 57° |
| 2026-04-24 10:02 | 67.01794 | -50.68539 | 344 ft | 97 kts | 55° |
| 2026-04-24 10:02 | 67.01980 | -50.67009 | 556 ft | 92 kts | 95° |
| 2026-04-24 10:03 | 67.01470 | -50.66346 | 620 ft | 93 kts | 185° |
| 2026-04-24 10:03 | 67.00886 | -50.67057 | 683 ft | 94 kts | 202° |
| 2026-04-24 10:03 | 67.00325 | -50.67914 | 703 ft | 98 kts | 210° |
| 2026-04-24 10:03 | 66.99968 | -50.69456 | 661 ft | 105 kts | 246° |
| 2026-04-24 10:04 | 66.99769 | -50.71270 | 660 ft | 107 kts | 249° |
| 2026-04-24 10:04 | 66.99579 | -50.73119 | 664 ft | 108 kts | 248° |
| 2026-04-24 10:04 | 66.99722 | -50.74905 | 419 ft | 111 kts | 317° |
| 2026-04-24 10:04 | 67.00435 | -50.74989 | 184 ft | 108 kts | 43° |
| 2026-04-24 10:05 | 67.00740 | -50.73410 | 197 ft | 99 kts | 53° |
| 2026-04-24 10:05 | 67.01082 | -50.71831 | 183 ft | 102 kts | 58° |
| 2026-04-24 10:05 | 67.01420 | -50.70220 | 210 ft | 103 kts | 55° |
| 2026-04-24 10:05 | 67.01774 | -50.68630 | 328 ft | 103 kts | 56° |
| 2026-04-24 10:06 | 67.02007 | -50.66945 | 533 ft | 101 kts | 85° |
| 2026-04-24 10:06 | 67.00974 | -50.66797 | 746 ft | 101 kts | 206° |
| 2026-04-24 10:06 | 67.00374 | -50.67769 | 794 ft | 106 kts | 205° |
| 2026-04-24 10:07 | 66.99953 | -50.69370 | 764 ft | 115 kts | 251° |
| 2026-04-24 10:07 | 66.99796 | -50.71352 | 703 ft | 114 kts | 251° |
| 2026-04-24 10:07 | 66.99599 | -50.73312 | 599 ft | 114 kts | 251° |
| 2026-04-24 10:07 | 66.99777 | -50.75211 | 363 ft | 113 kts | 315° |
| 2026-04-24 10:08 | 67.00417 | -50.75127 | 246 ft | 97 kts | 57° |
| 2026-04-24 10:08 | 67.00703 | -50.73579 | 175 ft | 97 kts | 55° |
| 2026-04-24 10:08 | 67.00970 | -50.72318 | 175 ft | 62 kts | 58° |
| 2026-04-24 10:08 | 67.01156 | -50.71493 | 179 ft | 50 kts | 53° |
| 2026-04-24 10:09 | 67.01319 | -50.70722 | 177 ft | 48 kts | 54° |
| 2026-04-24 10:09 | 67.01477 | -50.69965 | 173 ft | 48 kts | 53° |
| 2026-04-24 10:09 | 67.01639 | -50.69204 | 173 ft | 48 kts | 54° |
| 2026-04-24 10:09 | 67.01812 | -50.68443 | 324 ft | 55 kts | 48° |
| 2026-04-24 10:10 | 67.01992 | -50.67502 | 502 ft | 65 kts | 63° |
| 2026-04-24 10:10 | 67.01722 | -50.66655 | 555 ft | 76 kts | 160° |
| 2026-04-24 10:10 | 67.01204 | -50.67027 | 642 ft | 79 kts | 195° |
| 2026-04-24 10:10 | 67.00709 | -50.67730 | 717 ft | 83 kts | 200° |
| 2026-04-24 10:11 | 67.00226 | -50.68559 | 785 ft | 87 kts | 214° |
| 2026-04-24 10:11 | 66.99933 | -50.69986 | 793 ft | 95 kts | 249° |
| 2026-04-24 10:11 | 66.99693 | -50.71576 | 822 ft | 99 kts | 237° |
| 2026-04-24 10:11 | 66.99417 | -50.73222 | 794 ft | 106 kts | 248° |
| 2026-04-24 10:12 | 66.99615 | -50.75082 | 634 ft | 119 kts | 310° |
| 2026-04-24 10:12 | 67.00371 | -50.75436 | 275 ft | 118 kts | 37° |
| 2026-04-24 10:12 | 67.00665 | -50.73775 | 148 ft | 94 kts | 62° |
| 2026-04-24 10:12 | 67.00939 | -50.72508 | 162 ft | 68 kts | 57° |
| 2026-04-24 10:13 | 67.01094 | -50.71782 | 156 ft | 27 kts | 55° |
| 2026-04-24 10:13 | 67.01168 | -50.71452 | 155 ft | 16 kts | 61° |
| 2026-04-24 10:13 | 67.01210 | -50.71239 | 154 ft | 11 kts | 62° |
| 2026-04-24 10:13 | 67.01235 | -50.71118 | 154 ft | 6 kts | 60° |
| 2026-04-24 10:14 | 67.01263 | -50.70985 | 155 ft | 10 kts | 62° |
| 2026-04-24 10:14 | 67.01305 | -50.70811 | 158 ft | 13 kts | 55° |
| 2026-04-24 10:14 | 67.01354 | -50.70586 | 160 ft | 16 kts | 65° |
| 2026-04-24 10:14 | 67.01328 | -50.70377 | 159 ft | 13 kts | 159° |
| 2026-04-24 10:15 | 67.01239 | -50.70296 | 157 ft | 14 kts | 165° |
| 2026-04-24 10:15 | 67.01147 | -50.70255 | 156 ft | 13 kts | 169° |
| 2026-04-24 10:15 | 67.01083 | -50.70320 | 157 ft | 8 kts | 239° |
| 2026-04-24 10:15 | 67.01066 | -50.70410 | 157 ft | 3 kts | 246° |
| 2026-04-24 10:16 | 67.01059 | -50.70440 | 157 ft | 3 kts | 240° |
| 2026-04-24 10:16 | 67.01039 | -50.70535 | 157 ft | 8 kts | 242° |
| 2026-04-24 10:16 | 67.01004 | -50.70692 | 157 ft | 11 kts | 240° |
| 2026-04-24 10:16 | 67.00936 | -50.70715 | 158 ft | 11 kts | 135° |
| 2026-04-24 10:17 | 67.00889 | -50.70647 | 159 ft | 5 kts | 213° |
| 2026-04-24 10:17 | 67.00891 | -50.70698 | 160 ft | 3 kts | 290° |
| 2026-04-24 10:17 | 67.00894 | -50.70725 | 159 ft | 0 kts | 288° |
| 2026-04-24 10:17 | 67.00894 | -50.70728 | 159 ft | 0 kts | 288° |
| 2026-04-24 10:18 | 67.00895 | -50.70732 | 159 ft | 0 kts | 288° |
| 2026-04-24 10:18 | 67.00898 | -50.70758 | 159 ft | 3 kts | 287° |
| 2026-04-24 10:18 | 67.00904 | -50.70836 | 159 ft | 5 kts | 283° |
| 2026-04-24 10:18 | 67.00897 | -50.70930 | 158 ft | 6 kts | 240° |
| 2026-04-24 10:19 | 67.00877 | -50.71014 | 157 ft | 5 kts | 241° |
| 2026-04-24 10:19 | 67.00860 | -50.71093 | 157 ft | 5 kts | 242° |
| 2026-04-24 10:19 | 67.00835 | -50.71213 | 156 ft | 11 kts | 240° |
| 2026-04-24 10:19 | 67.00791 | -50.71420 | 155 ft | 14 kts | 245° |
| 2026-04-24 10:20 | 67.00748 | -50.71631 | 153 ft | 12 kts | 241° |
| 2026-04-24 10:20 | 67.00723 | -50.71784 | 152 ft | 6 kts | 282° |
| 2026-04-24 10:20 | 67.00743 | -50.71834 | 153 ft | 4 kts | 321° |
| 2026-04-24 10:20 | 67.00809 | -50.71975 | 169 ft | 18 kts | 315° |
| 2026-04-24 10:21 | 67.00930 | -50.72134 | 156 ft | 18 kts | 307° |
| 2026-04-24 10:21 | 67.01059 | -50.71939 | 190 ft | 49 kts | 64° |
| 2026-04-24 10:21 | 67.01276 | -50.70877 | 218 ft | 80 kts | 53° |
| 2026-04-24 10:21 | 67.01573 | -50.69555 | 329 ft | 89 kts | 55° |
| 2026-04-24 10:22 | 67.01874 | -50.68170 | 501 ft | 89 kts | 51° |
| 2026-04-24 10:22 | 67.01780 | -50.66787 | 643 ft | 89 kts | 137° |
| 2026-04-24 10:22 | 67.01116 | -50.66818 | 596 ft | 109 kts | 188° |
| 2026-04-24 10:22 | 67.00412 | -50.67701 | 567 ft | 114 kts | 211° |
| 2026-04-24 10:23 | 66.99980 | -50.69355 | 625 ft | 112 kts | 243° |
| 2026-04-24 10:23 | 66.99755 | -50.71260 | 687 ft | 112 kts | 248° |
| 2026-04-24 10:23 | 66.99526 | -50.73139 | 701 ft | 111 kts | 249° |
| 2026-04-24 10:23 | 66.99600 | -50.75093 | 512 ft | 117 kts | 296° |
| 2026-04-24 10:24 | 67.00275 | -50.75795 | 323 ft | 111 kts | 28° |
| 2026-04-24 10:24 | 67.00594 | -50.74139 | 175 ft | 102 kts | 63° |
| 2026-04-24 10:24 | 67.00876 | -50.72812 | 165 ft | 69 kts | 59° |
| 2026-04-24 10:24 | 67.01028 | -50.72071 | 160 ft | 25 kts | 51° |
| 2026-04-24 10:25 | 67.01056 | -50.71958 | 154 ft | 0 kts | 44° |
| 2026-04-24 10:25 | 67.01059 | -50.71952 | 154 ft | 3 kts | 44° |
| 2026-04-24 10:25 | 67.01098 | -50.71783 | 181 ft | 22 kts | 49° |
| 2026-04-24 10:25 | 67.01248 | -50.71093 | 235 ft | 65 kts | 49° |
| 2026-04-24 10:26 | 67.01485 | -50.69925 | 339 ft | 80 kts | 57° |
| 2026-04-24 10:26 | 67.01772 | -50.68664 | 511 ft | 83 kts | 50° |
| 2026-04-24 10:26 | 67.01688 | -50.67281 | 591 ft | 90 kts | 134° |
| 2026-04-24 10:26 | 67.01049 | -50.67206 | 629 ft | 101 kts | 184° |
| 2026-04-24 10:27 | 67.00357 | -50.67802 | 616 ft | 112 kts | 208° |
| 2026-04-24 10:27 | 67.00029 | -50.69554 | 649 ft | 107 kts | 251° |
| 2026-04-24 10:27 | 66.99822 | -50.71336 | 707 ft | 103 kts | 244° |
| 2026-04-24 10:27 | 66.99562 | -50.73061 | 687 ft | 108 kts | 243° |
| 2026-04-24 10:28 | 66.99565 | -50.75019 | 508 ft | 120 kts | 293° |
| 2026-04-24 10:28 | 67.00258 | -50.75688 | 351 ft | 110 kts | 34° |
| 2026-04-24 10:28 | 67.00618 | -50.74026 | 195 ft | 106 kts | 60° |
| 2026-04-24 10:28 | 67.00950 | -50.72477 | 194 ft | 90 kts | 56° |
| 2026-04-24 10:29 | 67.01230 | -50.71142 | 254 ft | 86 kts | 53° |
| 2026-04-24 10:29 | 67.01538 | -50.69691 | 272 ft | 97 kts | 57° |
| 2026-04-24 10:29 | 67.01862 | -50.68148 | 400 ft | 98 kts | 53° |
| 2026-04-24 10:29 | 67.02277 | -50.67021 | 711 ft | 80 kts | 9° |
| 2026-04-24 10:30 | 67.02759 | -50.67391 | 1026 ft | 73 kts | 314° |
| 2026-04-24 10:30 | 67.02983 | -50.68480 | 1317 ft | 73 kts | 251° |
| 2026-04-24 10:30 | 67.02795 | -50.69806 | 1515 ft | 87 kts | 236° |
| 2026-04-24 10:30 | 67.02518 | -50.71298 | 1675 ft | 99 kts | 236° |
| 2026-04-24 10:31 | 67.02191 | -50.72947 | 1789 ft | 108 kts | 236° |
| 2026-04-24 10:31 | 67.01845 | -50.74673 | 1975 ft | 107 kts | 237° |
| 2026-04-24 10:31 | 67.01529 | -50.76365 | 2114 ft | 108 kts | 239° |
| 2026-04-24 10:31 | 67.01221 | -50.78164 | 2125 ft | 113 kts | 242° |
| 2026-04-24 10:32 | 67.00920 | -50.80042 | 2052 ft | 115 kts | 237° |
| 2026-04-24 10:32 | 67.00318 | -50.81266 | 1894 ft | 115 kts | 186° |
| 2026-04-24 10:32 | 66.99576 | -50.80649 | 1421 ft | 117 kts | 135° |
| 2026-04-24 10:32 | 66.99371 | -50.78857 | 1012 ft | 106 kts | 55° |
| 2026-04-24 10:33 | 66.99854 | -50.77509 | 695 ft | 107 kts | 47° |
| 2026-04-24 10:33 | 67.00254 | -50.75826 | 255 ft | 113 kts | 62° |
| 2026-04-24 10:33 | 67.00590 | -50.74171 | 146 ft | 98 kts | 58° |
| 2026-04-24 10:33 | 67.00854 | -50.72914 | 156 ft | 62 kts | 54° |
| 2026-04-24 10:34 | 67.00978 | -50.72318 | 152 ft | 10 kts | 45° |
| 2026-04-24 10:34 | 67.00987 | -50.72293 | 147 ft | 0 kts | 40° |
| 2026-04-24 10:34 | 67.01037 | -50.72060 | 176 ft | 44 kts | 62° |
| 2026-04-24 10:34 | 67.01253 | -50.71068 | 222 ft | 78 kts | 51° |
| 2026-04-24 10:35 | 67.01522 | -50.69743 | 333 ft | 88 kts | 54° |
| 2026-04-24 10:35 | 67.01827 | -50.68384 | 545 ft | 87 kts | 54° |
| 2026-04-24 10:35 | 67.02229 | -50.67338 | 798 ft | 81 kts | 0° |
| 2026-04-24 10:35 | 67.02725 | -50.67886 | 1071 ft | 81 kts | 320° |
| 2026-04-24 10:36 | 67.02881 | -50.69201 | 1208 ft | 96 kts | 237° |
| 2026-04-24 10:36 | 67.02538 | -50.70719 | 1486 ft | 97 kts | 234° |
| 2026-04-24 10:36 | 67.02386 | -50.72262 | 1885 ft | 86 kts | 262° |
| 2026-04-24 10:36 | 67.02789 | -50.72466 | 1876 ft | 90 kts | 75° |
| 2026-04-24 10:37 | 67.02321 | -50.72487 | 1769 ft | 103 kts | 220° |
| 2026-04-24 10:37 | 67.01969 | -50.74224 | 1686 ft | 114 kts | 240° |
| 2026-04-24 10:37 | 67.01589 | -50.76069 | 1549 ft | 120 kts | 234° |
| 2026-04-24 10:37 | 67.01130 | -50.77903 | 1412 ft | 124 kts | 230° |
| 2026-04-24 10:38 | 67.00621 | -50.79655 | 1368 ft | 121 kts | 226° |
| 2026-04-24 10:38 | 67.00083 | -50.81278 | 1334 ft | 119 kts | 222° |
| 2026-04-24 10:38 | 66.99518 | -50.82750 | 1255 ft | 116 kts | 216° |
| 2026-04-24 10:38 | 66.98774 | -50.83327 | 966 ft | 111 kts | 167° |
| 2026-04-24 10:39 | 66.98139 | -50.82413 | 718 ft | 107 kts | 124° |
| 2026-04-24 10:39 | 66.97944 | -50.80674 | 516 ft | 102 kts | 78° |
| 2026-04-24 10:39 | 66.98324 | -50.79283 | 398 ft | 97 kts | 18° |
| 2026-04-24 10:39 | 66.98933 | -50.79444 | 364 ft | 87 kts | 334° |
| 2026-04-24 10:40 | 66.99490 | -50.80015 | 308 ft | 86 kts | 330° |
| 2026-04-24 10:40 | 66.99894 | -50.79710 | 333 ft | 57 kts | 109° |
| 2026-04-24 10:40 | 66.99660 | -50.78773 | 213 ft | 77 kts | 135° |
| 2026-04-24 10:40 | 66.99170 | -50.77907 | 131 ft | 90 kts | 138° |
| 2026-04-24 10:41 | 66.98686 | -50.76929 | 164 ft | 87 kts | 134° |
| 2026-04-24 10:41 | 66.98339 | -50.75863 | 313 ft | 65 kts | 78° |
| 2026-04-24 10:41 | 66.98612 | -50.75693 | 409 ft | 49 kts | 330° |
| 2026-04-24 10:41 | 66.98987 | -50.76039 | 320 ft | 64 kts | 334° |
| 2026-04-24 10:42 | 66.99460 | -50.76395 | 240 ft | 81 kts | 330° |
| 2026-04-24 10:42 | 67.00002 | -50.76842 | 332 ft | 67 kts | 41° |
| 2026-04-24 10:42 | 67.00120 | -50.76302 | 387 ft | 53 kts | 127° |
| 2026-04-24 10:42 | 66.99739 | -50.75631 | 148 ft | 84 kts | 149° |
| 2026-04-24 10:43 | 66.99190 | -50.74926 | 49 ft | 86 kts | 145° |
| 2026-04-24 10:43 | 66.98658 | -50.74202 | 147 ft | 86 kts | 144° |
| 2026-04-24 10:43 | 66.98730 | -50.73534 | 331 ft | 67 kts | 321° |
| 2026-04-24 10:43 | 66.99219 | -50.74273 | 248 ft | 95 kts | 325° |
| 2026-04-24 10:44 | 66.99855 | -50.74900 | 210 ft | 100 kts | 332° |
| 2026-04-24 10:44 | 67.00404 | -50.74991 | 250 ft | 70 kts | 66° |
| 2026-04-24 10:44 | 67.00651 | -50.73864 | 130 ft | 69 kts | 69° |
| 2026-04-24 10:44 | 67.00845 | -50.72952 | 137 ft | 47 kts | 60° |
| 2026-04-24 10:45 | 67.00964 | -50.72394 | 166 ft | 27 kts | 61° |
| 2026-04-24 10:45 | 67.01113 | -50.71722 | 197 ft | 60 kts | 51° |
| 2026-04-24 10:45 | 67.01338 | -50.70635 | 244 ft | 76 kts | 51° |
| 2026-04-24 10:45 | 67.01606 | -50.69367 | 315 ft | 84 kts | 57° |
| 2026-04-24 10:46 | 67.01875 | -50.68069 | 466 ft | 79 kts | 52° |
| 2026-04-24 10:46 | 67.01839 | -50.66711 | 539 ft | 83 kts | 121° |
| 2026-04-24 10:46 | 67.01300 | -50.66369 | 590 ft | 87 kts | 191° |
| 2026-04-24 10:46 | 67.00761 | -50.67091 | 672 ft | 87 kts | 204° |
| 2026-04-24 10:47 | 67.00273 | -50.67999 | 743 ft | 87 kts | 214° |
| 2026-04-24 10:47 | 66.99901 | -50.69262 | 788 ft | 93 kts | 235° |
| 2026-04-24 10:47 | 66.99655 | -50.70825 | 772 ft | 96 kts | 244° |
| 2026-04-24 10:47 | 66.99438 | -50.72456 | 739 ft | 98 kts | 247° |
| 2026-04-24 10:48 | 66.99540 | -50.74181 | 637 ft | 105 kts | 300° |
| 2026-04-24 10:48 | 67.00190 | -50.74905 | 328 ft | 110 kts | 6° |
| 2026-04-24 10:48 | 67.00680 | -50.73734 | 148 ft | 87 kts | 57° |
| 2026-04-24 10:48 | 67.00914 | -50.72633 | 146 ft | 54 kts | 53° |
| 2026-04-24 10:49 | 67.01022 | -50.72101 | 153 ft | 18 kts | 61° |
| 2026-04-24 10:49 | 67.01094 | -50.71780 | 178 ft | 43 kts | 46° |
| 2026-04-24 10:49 | 67.01311 | -50.70746 | 195 ft | 82 kts | 57° |
| 2026-04-24 10:49 | 67.01616 | -50.69378 | 285 ft | 92 kts | 50° |
| 2026-04-24 10:50 | 67.01899 | -50.67977 | 518 ft | 85 kts | 60° |
| 2026-04-24 10:50 | 67.01829 | -50.66586 | 709 ft | 85 kts | 141° |
| 2026-04-24 10:50 | 67.01213 | -50.66288 | 721 ft | 104 kts | 198° |
| 2026-04-24 10:50 | 67.00558 | -50.67164 | 772 ft | 109 kts | 227° |
| 2026-04-24 10:51 | 67.00021 | -50.68601 | 785 ft | 116 kts | 229° |
| 2026-04-24 10:51 | 66.99754 | -50.70516 | 760 ft | 114 kts | 248° |
| 2026-04-24 10:51 | 66.99538 | -50.72483 | 638 ft | 116 kts | 253° |
| 2026-04-24 10:51 | 66.99736 | -50.74425 | 419 ft | 116 kts | 311° |
| 2026-04-24 10:52 | 67.00434 | -50.74770 | 244 ft | 102 kts | 32° |
| 2026-04-24 10:52 | 67.00752 | -50.73362 | 150 ft | 83 kts | 54° |
| 2026-04-24 10:52 | 67.01006 | -50.72209 | 161 ft | 66 kts | 56° |
| 2026-04-24 10:52 | 67.01194 | -50.71301 | 157 ft | 49 kts | 53° |
| 2026-04-24 10:53 | 67.01301 | -50.70805 | 159 ft | 16 kts | 59° |
| 2026-04-24 10:53 | 67.01335 | -50.70648 | 159 ft | 7 kts | 60° |
| 2026-04-24 10:53 | 67.01345 | -50.70587 | 160 ft | 4 kts | 63° |
| 2026-04-24 10:53 | 67.01366 | -50.70491 | 160 ft | 8 kts | 68° |
| 2026-04-24 10:54 | 67.01329 | -50.70385 | 159 ft | 10 kts | 158° |
| 2026-04-24 10:54 | 67.01253 | -50.70319 | 158 ft | 13 kts | 167° |
| 2026-04-24 10:54 | 67.01176 | -50.70218 | 156 ft | 14 kts | 106° |
| 2026-04-24 10:54 | 67.01204 | -50.69973 | 155 ft | 15 kts | 62° |
| 2026-04-24 10:55 | 67.01254 | -50.69720 | 154 ft | 16 kts | 79° |
| 2026-04-24 10:55 | 67.01213 | -50.69593 | 154 ft | 5 kts | 195° |
| 2026-04-24 10:55 | 67.01208 | -50.69607 | 154 ft | 0 kts | 244° |